Time;durP1;ratioP1;P1;durP2;ratioP2;P2;SDS_P1;SDS_P2;PMS_P1;PMS_P2;Temp;Humidity;BMP_temperature;BMP_pressure;BME280_temperature;BME280_humidity;BME280_pressure;Samples;Min_cycle;Max_cycle;Signal;HPM_P1;HPM_P2
2024/01/29 00:00:32;;;;;;;10.97;10.67;;;0.50;99.90;;;;;;6321096;22;20205;-82
2024/01/29 00:03:02;;;;;;;10.87;10.57;;;0.50;99.90;;;;;;6343258;22;20180;-83
2024/01/29 00:05:39;;;;;;;10.77;10.47;;;0.50;99.90;;;;;;6342224;22;20189;-84
2024/01/29 00:08:08;;;;;;;10.80;10.50;;;0.40;99.90;;;;;;6342690;22;20198;-82
2024/01/29 00:10:36;;;;;;;10.60;10.30;;;0.40;99.90;;;;;;6342812;22;20173;-83
2024/01/29 00:13:06;;;;;;;11.10;10.80;;;0.40;99.90;;;;;;6333833;22;20250;-83
2024/01/29 00:15:35;;;;;;;10.73;10.43;;;0.30;99.90;;;;;;6340689;22;20192;-83
2024/01/29 00:18:07;;;;;;;10.70;10.40;;;0.30;99.90;;;;;;6334875;22;20192;-83
2024/01/29 00:20:34;;;;;;;10.43;10.13;;;0.30;99.90;;;;;;6332938;22;20179;-84
2024/01/29 00:23:03;;;;;;;10.87;10.57;;;0.30;99.90;;;;;;6334549;22;20201;-83
2024/01/29 00:28:12;;;;;;;10.57;10.27;;;0.30;99.90;;;;;;6327623;22;20259;-84
2024/01/29 00:30:40;;;;;;;10.70;10.40;;;0.30;99.90;;;;;;6327755;22;20201;-83
2024/01/29 00:39:19;;;;;;;10.70;10.40;;;0.30;99.90;;;;;;5164088;27;20220;-82
2024/01/29 00:41:49;;;;;;;10.67;10.37;;;0.30;99.90;;;;;;5152611;27;20229;-82
2024/01/29 00:44:19;;;;;;;10.47;10.17;;;0.30;99.90;;;;;;5155031;27;20239;-82
2024/01/29 00:46:50;;;;;;;10.90;10.60;;;0.20;99.90;;;;;;5154450;27;20208;-82
2024/01/29 00:49:17;;;;;;;10.90;10.60;;;0.20;99.90;;;;;;5137111;27;20256;-82
2024/01/29 00:52:07;;;;;;;10.40;10.10;;;0.20;99.90;;;;;;5151986;27;20254;-83
2024/01/29 00:54:38;;;;;;;10.33;10.03;;;0.20;99.90;;;;;;5151650;27;20235;-82
2024/01/29 00:57:06;;;;;;;10.13;9.83;;;0.20;99.90;;;;;;5150274;27;20262;-82
2024/01/29 01:02:26;;;;;;;10.60;10.30;;;0.20;99.90;;;;;;5142664;27;20227;-82
2024/01/29 01:05:01;;;;;;;10.70;10.40;;;0.20;99.90;;;;;;5142242;27;20220;-82
2024/01/29 01:08:06;;;;;;;10.23;9.93;;;0.20;99.90;;;;;;5142874;27;20219;-82
2024/01/29 01:10:35;;;;;;;10.50;10.20;;;0.20;99.90;;;;;;5142001;27;21029;-82
2024/01/29 01:13:12;;;;;;;10.43;10.13;;;0.10;99.90;;;;;;5144499;27;20262;-82
2024/01/29 01:15:43;;;;;;;10.60;10.30;;;0.20;99.90;;;;;;5143570;27;20250;-83
2024/01/29 01:18:16;;;;;;;10.57;10.27;;;0.10;99.90;;;;;;5142759;27;20220;-82
2024/01/29 01:20:50;;;;;;;10.80;10.50;;;0.10;99.90;;;;;;5141778;27;20243;-83
2024/01/29 01:26:32;;;;;;;10.57;10.27;;;0.10;99.90;;;;;;5141512;27;20208;-82
2024/01/29 01:29:08;;;;;;;10.43;10.13;;;0.10;99.90;;;;;;5141668;27;20234;-82
2024/01/29 01:31:39;;;;;;;10.57;10.27;;;0.10;99.90;;;;;;5141024;27;20935;-82
2024/01/29 01:34:10;;;;;;;10.80;10.50;;;0.10;99.90;;;;;;5141566;27;20224;-82
2024/01/29 01:37:07;;;;;;;10.70;10.40;;;0.10;99.90;;;;;;5140854;27;20239;-82
2024/01/29 01:39:43;;;;;;;10.40;10.10;;;0.10;99.90;;;;;;5142268;27;20337;-82
2024/01/29 01:42:12;;;;;;;10.53;10.23;;;0.00;99.90;;;;;;5141262;27;20291;-82
2024/01/29 01:44:42;;;;;;;10.70;10.40;;;0.10;99.90;;;;;;5141403;27;20255;-82
2024/01/29 01:47:14;;;;;;;10.70;10.40;;;0.10;99.90;;;;;;5129071;27;20228;-82
2024/01/29 01:49:54;;;;;;;10.73;10.43;;;0.00;99.90;;;;;;5128107;28;20283;-82
2024/01/29 01:52:28;;;;;;;10.40;10.10;;;0.00;99.90;;;;;;5127232;28;20253;-82
2024/01/29 01:55:05;;;;;;;10.60;10.30;;;0.00;99.90;;;;;;5127964;28;20227;-83
2024/01/29 01:57:47;;;;;;;10.80;10.50;;;0.00;99.90;;;;;;5130781;28;20228;-82
2024/01/29 02:00:22;;;;;;;10.70;10.40;;;0.00;99.90;;;;;;5129323;28;20258;-83
2024/01/29 02:02:55;;;;;;;10.50;10.20;;;0.00;99.90;;;;;;5128333;28;20234;-83
2024/01/29 02:05:34;;;;;;;10.67;10.37;;;-0.10;99.90;;;;;;5127686;28;20242;-82
2024/01/29 02:08:11;;;;;;;10.47;10.17;;;0.00;99.90;;;;;;5127969;28;20228;-82
2024/01/29 02:10:46;;;;;;;10.67;10.37;;;0.00;99.90;;;;;;5127234;28;20239;-82
2024/01/29 02:13:25;;;;;;;10.67;10.37;;;0.10;99.90;;;;;;5128845;28;20244;-82
2024/01/29 02:16:12;;;;;;;10.73;10.43;;;0.10;99.90;;;;;;5127410;28;20240;-82
2024/01/29 02:18:41;;;;;;;10.90;10.60;;;0.10;99.90;;;;;;5127280;28;21010;-82
2024/01/29 02:21:20;;;;;;;10.57;10.27;;;0.00;99.90;;;;;;5130822;28;20241;-82
2024/01/29 02:23:54;;;;;;;10.70;10.40;;;0.00;99.90;;;;;;5135081;28;20251;-82
2024/01/29 02:32:04;;;;;;;10.67;10.37;;;-0.10;99.90;;;;;;5126436;28;20245;-82
2024/01/29 02:34:40;;;;;;;10.60;10.30;;;-0.10;99.90;;;;;;5127607;28;20237;-82
2024/01/29 02:37:10;;;;;;;10.80;10.50;;;0.00;99.90;;;;;;5127174;28;20239;-82
2024/01/29 02:42:30;;;;;;;10.80;10.50;;;-0.10;99.90;;;;;;5126578;28;20229;-82
2024/01/29 02:45:05;;;;;;;10.77;10.47;;;-0.10;99.90;;;;;;5126173;28;20294;-82
2024/01/29 02:47:35;;;;;;;10.87;10.57;;;-0.20;99.90;;;;;;5127272;28;20258;-82
2024/01/29 02:55:56;;;;;;;10.77;10.47;;;-0.20;99.90;;;;;;5085231;28;20669;-82
2024/01/29 02:58:25;;;;;;;10.97;10.67;;;-0.30;99.90;;;;;;5085192;28;20226;-82
2024/01/29 03:03:43;;;;;;;10.60;10.30;;;-0.30;99.90;;;;;;5099978;28;20289;-82
2024/01/29 03:06:14;;;;;;;10.70;10.40;;;-0.20;99.90;;;;;;5091186;28;20253;-81
2024/01/29 03:17:10;;;;;;;10.70;10.40;;;-0.20;99.90;;;;;;5084511;28;20222;-82
2024/01/29 03:19:40;;;;;;;10.77;10.47;;;-0.20;99.90;;;;;;5085612;28;20234;-82
2024/01/29 03:22:11;;;;;;;10.53;10.23;;;-0.20;99.90;;;;;;5086691;28;20281;-82
2024/01/29 03:24:58;;;;;;;10.60;10.30;;;-0.20;99.90;;;;;;5089020;28;20241;-82
2024/01/29 03:30:12;;;;;;;10.90;10.60;;;-0.20;99.90;;;;;;5105659;28;20271;-82
2024/01/29 03:35:35;;;;;;;10.73;10.43;;;-0.20;99.90;;;;;;5104388;28;20292;-82
2024/01/29 03:38:10;;;;;;;10.33;10.03;;;-0.10;99.90;;;;;;5104842;28;20309;-82
2024/01/29 03:40:55;;;;;;;10.53;10.23;;;-0.10;99.90;;;;;;5104338;28;20296;-82
2024/01/29 03:43:32;;;;;;;10.70;10.40;;;-0.10;99.90;;;;;;5095917;28;20243;-82
2024/01/29 03:46:07;;;;;;;11.00;10.70;;;0.00;99.90;;;;;;5098263;28;20300;-83
2024/01/29 03:48:44;;;;;;;10.93;10.63;;;0.00;99.90;;;;;;5086222;28;20686;-82
2024/01/29 03:51:11;;;;;;;10.77;10.47;;;0.00;99.90;;;;;;5085658;28;20272;-82
2024/01/29 03:59:48;;;;;;;10.63;10.33;;;-0.20;99.90;;;;;;5106126;28;21007;-82
2024/01/29 04:02:26;;;;;;;10.73;10.43;;;-0.30;99.90;;;;;;5105201;28;20233;-82
2024/01/29 04:04:56;;;;;;;10.60;10.30;;;-0.40;99.90;;;;;;5105956;28;20236;-83
2024/01/29 04:07:28;;;;;;;10.80;10.50;;;-0.40;99.90;;;;;;5106233;28;20222;-82
2024/01/29 04:09:57;;;;;;;10.70;10.40;;;-0.40;99.90;;;;;;5105678;28;20225;-82
2024/01/29 04:12:35;;;;;;;10.73;10.43;;;-0.40;99.90;;;;;;5105513;28;20233;-82
2024/01/29 04:15:14;;;;;;;10.90;10.60;;;-0.50;99.90;;;;;;5105360;28;20269;-82
2024/01/29 04:18:00;;;;;;;10.93;10.63;;;-0.50;99.90;;;;;;5106022;28;20236;-82
2024/01/29 04:20:28;;;;;;;10.97;10.67;;;-0.50;99.90;;;;;;5104786;28;20241;-82
2024/01/29 04:22:58;;;;;;;11.00;10.70;;;-0.40;99.90;;;;;;5105433;28;20266;-82
2024/01/29 04:28:33;;;;;;;10.77;10.47;;;-0.40;99.90;;;;;;5115518;28;20228;-83
2024/01/29 04:31:10;;;;;;;10.90;10.60;;;-0.30;99.90;;;;;;5110573;28;20293;-83
2024/01/29 04:33:48;;;;;;;10.70;10.40;;;-0.30;99.90;;;;;;5106812;28;20221;-83
2024/01/29 04:36:21;;;;;;;10.67;10.37;;;-0.40;99.90;;;;;;5105152;28;20271;-83
2024/01/29 04:38:49;;;;;;;10.50;10.20;;;-0.40;99.90;;;;;;5105257;28;20309;-83
2024/01/29 04:44:04;;;;;;;10.70;10.40;;;-0.40;99.90;;;;;;5105499;28;20229;-83
2024/01/29 04:49:23;;;;;;;10.63;10.33;;;-0.50;99.90;;;;;;5101715;28;20232;-84
2024/01/29 04:54:38;;;;;;;10.83;10.53;;;-0.40;99.90;;;;;;5104588;28;20220;-82
2024/01/29 05:00:05;;;;;;;10.87;10.57;;;-0.40;99.90;;;;;;5104718;28;20228;-82
2024/01/29 05:05:35;;;;;;;10.53;10.23;;;-0.40;99.90;;;;;;5095936;28;20229;-82
2024/01/29 05:08:13;;;;;;;10.73;10.43;;;-0.40;99.90;;;;;;5098763;28;20244;-82
2024/01/29 05:13:32;;;;;;;10.93;10.63;;;-0.40;99.90;;;;;;5094443;28;20304;-82
2024/01/29 05:16:16;;;;;;;10.70;10.40;;;-0.30;99.90;;;;;;5104797;28;20248;-82
2024/01/29 05:24:51;;;;;;;11.20;10.90;;;-0.40;99.90;;;;;;5105790;28;20268;-82
2024/01/29 05:27:27;;;;;;;11.37;11.07;;;-0.40;99.90;;;;;;5108177;28;20225;-82
2024/01/29 05:30:08;;;;;;;11.10;10.80;;;-0.50;99.90;;;;;;5108479;28;20220;-83
2024/01/29 05:46:47;;;;;;;10.93;10.63;;;-0.40;99.90;;;;;;4845316;27;9036205;-84
2024/01/29 05:49:29;;;;;;;10.70;10.40;;;-0.50;99.90;;;;;;5143421;27;20238;-83
2024/01/29 05:52:33;;;;;;;11.17;10.87;;;-0.50;99.90;;;;;;5123222;28;20269;-84
2024/01/29 05:55:20;;;;;;;10.93;10.63;;;-0.40;99.90;;;;;;5136097;27;20234;-83
2024/01/29 05:58:21;;;;;;;11.03;10.73;;;-0.40;99.90;;;;;;5151244;27;20230;-82
2024/01/29 06:03:19;;;;;;;11.03;10.73;;;-0.30;99.90;;;;;;5059529;28;20250;-80
2024/01/29 06:05:47;;;;;;;10.93;10.63;;;-0.30;99.90;;;;;;5060632;28;20219;-80
2024/01/29 06:08:15;;;;;;;10.70;10.40;;;-0.30;99.90;;;;;;5060244;28;20249;-79
2024/01/29 06:10:42;;;;;;;10.17;9.87;;;-0.30;99.90;;;;;;5059204;28;20231;-80
2024/01/29 06:13:10;;;;;;;9.97;9.67;;;-0.20;99.90;;;;;;5040835;28;20243;-79
2024/01/29 06:15:37;;;;;;;10.27;9.97;;;-0.20;99.90;;;;;;5041145;28;20247;-80
2024/01/29 06:18:06;;;;;;;10.87;10.57;;;-0.20;99.90;;;;;;5040262;28;20246;-80
2024/01/29 06:20:34;;;;;;;10.17;9.87;;;-0.20;99.90;;;;;;5039683;28;20239;-80
2024/01/29 06:23:01;;;;;;;10.27;9.97;;;-0.20;99.90;;;;;;5040496;28;20239;-80
2024/01/29 06:25:29;;;;;;;10.70;10.40;;;-0.20;99.90;;;;;;5040328;28;20219;-80
2024/01/29 06:27:56;;;;;;;10.90;10.60;;;-0.20;99.90;;;;;;5039747;28;20287;-82
2024/01/29 06:30:23;;;;;;;10.70;10.40;;;-0.20;99.90;;;;;;5039805;28;20227;-80
2024/01/29 06:32:50;;;;;;;10.40;10.10;;;-0.20;99.90;;;;;;5040170;28;20262;-82
2024/01/29 06:35:18;;;;;;;10.80;10.50;;;-0.20;99.90;;;;;;5039743;28;20242;-81
2024/01/29 06:37:47;;;;;;;10.87;10.57;;;-0.20;99.90;;;;;;5040364;28;20227;-80
2024/01/29 06:40:14;;;;;;;10.63;10.33;;;-0.20;99.90;;;;;;5040289;28;20235;-80
2024/01/29 06:42:42;;;;;;;10.77;10.47;;;-0.30;99.90;;;;;;5039338;28;20243;-80
2024/01/29 06:45:10;;;;;;;11.50;11.10;;;-0.40;99.90;;;;;;5038724;28;20238;-80
2024/01/29 06:47:37;;;;;;;11.10;10.80;;;-0.40;99.90;;;;;;5027459;28;20310;-81
2024/01/29 06:50:05;;;;;;;11.13;10.83;;;-0.50;99.90;;;;;;5031672;28;20236;-79
2024/01/29 06:52:32;;;;;;;11.43;11.03;;;-0.50;99.90;;;;;;5030448;28;20244;-79
2024/01/29 06:55:01;;;;;;;11.50;11.10;;;-0.50;99.90;;;;;;5027458;28;20250;-80
2024/01/29 06:57:28;;;;;;;11.00;10.70;;;-0.60;99.90;;;;;;5027113;28;20324;-80
2024/01/29 06:59:55;;;;;;;11.00;10.70;;;-0.60;99.90;;;;;;5026659;28;20259;-78
2024/01/29 07:02:23;;;;;;;10.80;10.50;;;-0.50;99.90;;;;;;5026358;28;20253;-80
2024/01/29 07:04:50;;;;;;;10.90;10.60;;;-0.50;99.90;;;;;;5026474;28;20251;-80
2024/01/29 07:07:17;;;;;;;10.80;10.50;;;-0.50;99.90;;;;;;5026978;28;20223;-80
2024/01/29 07:09:45;;;;;;;10.60;10.30;;;-0.50;99.90;;;;;;5026327;28;20236;-79
2024/01/29 07:12:15;;;;;;;11.00;10.70;;;-0.50;99.90;;;;;;5025088;28;20731;-79
2024/01/29 07:14:42;;;;;;;10.70;10.40;;;-0.40;99.90;;;;;;5025489;28;20240;-80
2024/01/29 07:17:10;;;;;;;10.93;10.63;;;-0.40;99.90;;;;;;5024167;28;20472;-80
2024/01/29 07:19:37;;;;;;;10.83;10.53;;;-0.30;99.90;;;;;;5026602;28;20240;-83
2024/01/29 07:22:08;;;;;;;11.20;10.90;;;-0.20;99.90;;;;;;5026271;28;20240;-81
2024/01/29 07:24:35;;;;;;;10.83;10.53;;;-0.20;99.90;;;;;;5028035;28;20228;-82
2024/01/29 07:27:04;;;;;;;11.17;10.87;;;0.00;99.90;;;;;;5028355;28;20310;-81
2024/01/29 07:29:33;;;;;;;10.63;10.33;;;0.00;99.90;;;;;;5027698;28;20247;-81
2024/01/29 07:32:00;;;;;;;11.33;10.97;;;0.00;99.90;;;;;;5026624;28;20232;-81
2024/01/29 07:34:27;;;;;;;11.23;10.93;;;0.00;99.90;;;;;;5027109;28;20235;-81
2024/01/29 07:36:54;;;;;;;11.60;11.20;;;0.00;99.90;;;;;;5026864;28;20252;-82
2024/01/29 07:39:22;;;;;;;11.10;10.80;;;0.00;99.90;;;;;;5026409;28;20236;-81
2024/01/29 07:41:49;;;;;;;11.20;10.90;;;0.00;99.90;;;;;;5028824;28;20291;-81
2024/01/29 07:44:17;;;;;;;10.80;10.50;;;0.00;99.90;;;;;;5027806;28;20224;-81
2024/01/29 07:46:45;;;;;;;11.17;10.87;;;0.10;99.90;;;;;;5025990;28;20235;-81
2024/01/29 07:49:13;;;;;;;11.40;11.00;;;0.10;99.90;;;;;;5026015;28;20324;-81
2024/01/29 07:51:41;;;;;;;10.87;10.57;;;0.20;99.90;;;;;;5025325;28;20236;-82
2024/01/29 07:54:08;;;;;;;10.77;10.47;;;0.30;99.90;;;;;;5026727;28;20230;-80
2024/01/29 07:56:38;;;;;;;10.83;10.53;;;0.40;99.90;;;;;;5025504;28;20232;-81
2024/01/29 07:59:05;;;;;;;11.53;11.13;;;0.50;99.90;;;;;;5025757;28;20231;-80
2024/01/29 08:01:33;;;;;;;11.13;10.83;;;0.60;99.90;;;;;;5025696;28;20243;-80
2024/01/29 08:04:03;;;;;;;11.63;11.23;;;0.60;99.90;;;;;;5026081;28;20291;-81
2024/01/29 08:06:30;;;;;;;11.10;10.80;;;0.70;99.90;;;;;;5026931;28;20268;-78
2024/01/29 08:08:58;;;;;;;10.77;10.47;;;0.80;99.90;;;;;;5025534;28;20287;-80
2024/01/29 08:11:25;;;;;;;10.70;10.40;;;0.80;99.90;;;;;;5026527;28;20248;-81
2024/01/29 08:13:52;;;;;;;10.90;10.60;;;0.90;99.90;;;;;;5026700;28;20302;-81
2024/01/29 08:16:19;;;;;;;10.83;10.53;;;1.00;99.90;;;;;;5026658;28;20228;-81
2024/01/29 08:18:47;;;;;;;10.97;10.67;;;1.00;99.90;;;;;;5026849;28;20239;-81
2024/01/29 08:21:15;;;;;;;11.13;10.83;;;1.10;99.90;;;;;;5026210;28;20231;-81
2024/01/29 08:23:43;;;;;;;11.30;11.00;;;1.10;99.90;;;;;;5025385;28;20227;-81
2024/01/29 08:26:10;;;;;;;10.80;10.50;;;1.20;99.90;;;;;;5026949;28;20303;-80
2024/01/29 08:28:38;;;;;;;10.70;10.40;;;1.30;99.90;;;;;;5032150;28;20231;-81
2024/01/29 08:31:06;;;;;;;10.83;10.53;;;1.40;99.90;;;;;;5030582;28;20239;-80
2024/01/29 08:33:34;;;;;;;10.53;10.23;;;1.50;99.90;;;;;;5031441;28;20243;-81
2024/01/29 08:36:01;;;;;;;10.53;10.23;;;1.50;99.90;;;;;;5030168;28;20251;-81
2024/01/29 08:38:30;;;;;;;10.70;10.40;;;1.60;99.90;;;;;;5028497;28;20239;-82
2024/01/29 08:40:57;;;;;;;11.03;10.73;;;1.70;99.90;;;;;;5028544;28;20299;-82
2024/01/29 08:43:25;;;;;;;10.90;10.60;;;1.80;99.90;;;;;;5026428;28;20234;-84
2024/01/29 08:45:52;;;;;;;11.10;10.80;;;1.90;99.90;;;;;;5026277;28;20235;-85
2024/01/29 08:48:20;;;;;;;10.73;10.43;;;2.00;99.90;;;;;;5025591;28;20315;-84
2024/01/29 08:50:47;;;;;;;10.87;10.57;;;2.10;99.90;;;;;;5026446;28;20259;-84
2024/01/29 08:53:15;;;;;;;10.90;10.60;;;2.20;99.90;;;;;;5026173;28;20344;-84
2024/01/29 08:55:44;;;;;;;10.50;10.20;;;2.40;99.90;;;;;;5025080;28;20328;-83
2024/01/29 08:58:11;;;;;;;10.20;9.90;;;2.50;99.90;;;;;;5028674;28;20242;-81
2024/01/29 09:00:39;;;;;;;10.37;10.07;;;2.70;99.90;;;;;;5038486;28;20224;-82
2024/01/29 09:03:06;;;;;;;10.07;9.77;;;2.70;99.90;;;;;;5037851;28;20228;-81
2024/01/29 09:05:33;;;;;;;10.03;9.73;;;2.90;99.90;;;;;;5036647;28;20216;-82
2024/01/29 09:08:01;;;;;;;9.87;9.57;;;3.00;99.90;;;;;;5029475;28;20238;-84
2024/01/29 09:10:28;;;;;;;10.60;10.30;;;3.10;99.90;;;;;;5029272;28;20274;-83
2024/01/29 09:13:00;;;;;;;10.50;10.20;;;3.20;99.90;;;;;;5027921;28;20360;-82
2024/01/29 09:15:29;;;;;;;11.07;10.77;;;3.30;99.90;;;;;;5026424;28;20224;-84
2024/01/29 09:17:56;;;;;;;10.80;10.50;;;3.50;99.90;;;;;;5025817;28;20236;-85
2024/01/29 09:20:24;;;;;;;11.07;10.77;;;3.70;99.90;;;;;;5025440;28;20242;-83
2024/01/29 09:22:51;;;;;;;10.90;10.60;;;3.90;99.90;;;;;;5024782;28;20232;-84
2024/01/29 09:25:19;;;;;;;11.07;10.77;;;4.00;99.90;;;;;;5026814;28;20224;-84
2024/01/29 09:27:46;;;;;;;10.90;10.60;;;4.10;99.90;;;;;;5026859;28;20232;-83
2024/01/29 09:30:15;;;;;;;11.10;10.80;;;4.30;99.90;;;;;;5029286;28;20242;-79
2024/01/29 09:32:56;;;;;;;11.30;10.90;;;4.60;99.90;;;;;;5024943;28;20287;-85
2024/01/29 09:35:32;;;;;;;11.07;10.77;;;4.70;99.90;;;;;;5016141;28;20335;-86
2024/01/29 09:38:02;;;;;;;11.10;10.80;;;4.80;99.90;;;;;;5025491;28;20231;-83
2024/01/29 09:43:51;;;;;;;10.93;10.63;;;4.70;99.90;;;;;;5025171;28;20228;-85
2024/01/29 09:46:21;;;;;;;10.70;10.40;;;4.70;99.90;;;;;;5004863;28;20240;-81
2024/01/29 09:48:49;;;;;;;10.73;10.43;;;4.70;99.90;;;;;;5004092;28;20233;-80
2024/01/29 09:51:18;;;;;;;10.77;10.47;;;4.70;99.90;;;;;;5003318;28;20243;-81
2024/01/29 09:53:45;;;;;;;10.40;10.10;;;4.80;99.90;;;;;;5006697;28;20255;-81
2024/01/29 09:56:13;;;;;;;10.60;10.30;;;4.80;99.90;;;;;;5022451;28;20282;-82
2024/01/29 09:59:18;;;;;;;10.30;10.00;;;4.90;99.90;;;;;;5024727;28;20232;-87
2024/01/29 10:01:48;;;;;;;10.40;10.10;;;5.10;99.90;;;;;;5005723;28;20239;-87
2024/01/29 10:04:21;;;;;;;10.50;10.20;;;5.30;99.90;;;;;;5024735;28;20228;-85
2024/01/29 10:06:50;;;;;;;10.40;10.10;;;5.50;99.90;;;;;;5025591;28;20234;-86
2024/01/29 10:09:22;;;;;;;10.60;10.30;;;5.70;99.90;;;;;;5024676;28;20228;-86
2024/01/29 10:11:51;;;;;;;10.90;10.60;;;5.90;99.90;;;;;;5025134;28;20240;-84
2024/01/29 10:14:19;;;;;;;10.90;10.60;;;6.00;99.90;;;;;;5025271;28;20230;-86
2024/01/29 10:16:51;;;;;;;10.60;10.30;;;6.20;99.90;;;;;;5024724;28;20240;-86
2024/01/29 10:19:38;;;;;;;10.70;10.40;;;6.40;99.90;;;;;;5025011;28;20239;-87
2024/01/29 10:22:27;;;;;;;;;;;;;;;;;;;;;
2024/01/29 10:25:03;;;;;;;10.93;10.63;;;6.80;99.90;;;;;;5028014;28;20247;-85
2024/01/29 10:27:49;;;;;;;10.60;10.30;;;6.90;99.90;;;;;;5027159;28;20222;-85
2024/01/29 10:30:20;;;;;;;10.63;10.33;;;7.00;99.90;;;;;;5027545;28;20232;-86
2024/01/29 10:32:50;;;;;;;10.67;10.37;;;7.10;99.90;;;;;;5028185;28;20240;-84
2024/01/29 10:35:19;;;;;;;10.63;10.33;;;7.10;99.90;;;;;;5028715;28;20246;-86
2024/01/29 10:37:51;;;;;;;10.83;10.53;;;7.20;99.90;;;;;;5029371;28;20220;-86
2024/01/29 10:40:23;;;;;;;10.80;10.50;;;7.30;99.90;;;;;;5029165;28;20236;-86
2024/01/29 10:42:55;;;;;;;10.67;10.37;;;7.60;99.90;;;;;;5027803;28;20267;-84
2024/01/29 10:45:28;;;;;;;10.90;10.60;;;7.70;99.90;;;;;;5010024;28;20221;-87
2024/01/29 10:48:19;;;;;;;10.73;10.43;;;7.60;99.90;;;;;;5008269;28;20247;-84
2024/01/29 10:50:49;;;;;;;10.80;10.50;;;7.40;99.90;;;;;;5007669;28;20241;-85
2024/01/29 10:53:18;;;;;;;11.20;10.90;;;7.60;99.90;;;;;;5008832;28;20283;-84
2024/01/29 10:55:51;;;;;;;10.70;10.40;;;7.70;99.90;;;;;;5008092;28;20269;-85
2024/01/29 10:58:21;;;;;;;10.67;10.37;;;7.70;99.90;;;;;;5007383;28;20225;-86
2024/01/29 11:00:52;;;;;;;10.90;10.60;;;7.70;99.90;;;;;;5008031;28;20235;-87
2024/01/29 11:03:26;;;;;;;10.80;10.50;;;7.80;99.90;;;;;;5007348;28;20277;-86
2024/01/29 11:06:00;;;;;;;10.87;10.57;;;7.80;99.90;;;;;;5007867;28;20240;-85
2024/01/29 11:08:33;;;;;;;10.50;10.20;;;7.90;99.90;;;;;;5007533;28;20229;-84
2024/01/29 11:11:05;;;;;;;10.30;10.00;;;7.90;99.90;;;;;;5007411;28;20240;-86
2024/01/29 11:13:34;;;;;;;10.60;10.30;;;7.90;99.90;;;;;;5011015;28;20229;-85
2024/01/29 11:16:03;;;;;;;10.60;10.30;;;8.00;99.90;;;;;;5007892;28;20229;-84
2024/01/29 11:18:36;;;;;;;10.77;10.47;;;8.00;99.90;;;;;;5007043;28;20220;-86
2024/01/29 11:21:05;;;;;;;10.93;10.63;;;8.30;99.90;;;;;;5006559;28;20248;-85
2024/01/29 11:23:43;;;;;;;10.90;10.60;;;8.40;99.90;;;;;;5010587;28;20236;-86
2024/01/29 11:26:22;;;;;;;11.40;11.00;;;8.40;99.90;;;;;;5008566;28;20216;-86
2024/01/29 11:28:58;;;;;;;11.37;10.97;;;8.60;99.90;;;;;;5008854;28;20223;-86
2024/01/29 11:31:39;;;;;;;10.83;10.53;;;8.80;99.90;;;;;;5008007;28;20244;-85
2024/01/29 11:34:13;;;;;;;10.60;10.30;;;8.90;99.90;;;;;;5005470;28;20259;-85
2024/01/29 11:36:46;;;;;;;10.93;10.63;;;9.00;99.90;;;;;;5005959;28;20229;-85
2024/01/29 11:39:17;;;;;;;10.70;10.40;;;9.20;99.90;;;;;;5006015;28;20229;-85
2024/01/29 11:41:53;;;;;;;10.70;10.40;;;9.20;99.90;;;;;;5006814;28;20245;-85
2024/01/29 11:44:23;;;;;;;11.10;10.80;;;9.30;99.90;;;;;;5006187;28;20303;-86
2024/01/29 11:46:56;;;;;;;11.30;11.00;;;9.50;99.90;;;;;;5009169;28;20286;-86
2024/01/29 11:49:28;;;;;;;11.00;10.70;;;9.70;99.90;;;;;;5005787;28;20221;-83
2024/01/29 11:52:00;;;;;;;11.10;10.80;;;9.50;99.90;;;;;;5008287;28;20237;-84
2024/01/29 11:54:28;;;;;;;11.00;10.70;;;9.30;99.90;;;;;;5012487;28;20235;-84
2024/01/29 11:56:56;;;;;;;11.07;10.77;;;9.40;99.90;;;;;;5005782;28;20229;-83
2024/01/29 11:59:30;;;;;;;10.93;10.63;;;9.60;99.90;;;;;;5005548;28;20268;-85
2024/01/29 12:01:58;;;;;;;10.80;10.50;;;10.00;99.90;;;;;;5005459;28;20319;-85
2024/01/29 12:04:28;;;;;;;11.00;10.70;;;10.30;99.90;;;;;;5075809;22;20298;-86
2024/01/29 12:06:55;;;;;;;10.80;10.50;;;10.40;99.90;;;;;;5067778;28;20277;-85
2024/01/29 12:09:28;;;;;;;10.90;10.60;;;10.60;99.90;;;;;;5074756;28;20226;-85
2024/01/29 12:11:56;;;;;;;11.30;10.90;;;10.90;99.90;;;;;;5069124;28;20237;-86
2024/01/29 12:14:23;;;;;;;10.80;10.50;;;11.20;99.90;;;;;;5051993;28;20310;-86
2024/01/29 12:17:28;;;;;;;11.03;10.73;;;11.70;99.90;;;;;;5047968;28;20334;-89
2024/01/29 12:28:48;;;;;;;10.50;10.20;;;11.60;99.90;;;;;;5047508;28;20223;-87
2024/01/29 12:34:26;;;;;;;10.60;10.30;;;11.30;99.90;;;;;;5047620;28;20234;-90
2024/01/29 12:37:19;;;;;;;10.80;10.50;;;11.50;99.90;;;;;;5049476;28;20228;-87
2024/01/29 12:39:54;;;;;;;10.90;10.60;;;12.00;99.90;;;;;;5052569;28;20231;-88
2024/01/29 12:42:23;;;;;;;11.10;10.80;;;12.40;99.90;;;;;;5047730;28;20282;-88
2024/01/29 12:47:42;;;;;;;11.10;10.80;;;12.90;99.90;;;;;;5046008;28;20254;-89
2024/01/29 12:53:33;;;;;;;10.60;10.30;;;13.70;99.90;;;;;;5039664;28;20228;-89
2024/01/29 12:58:50;;;;;;;10.70;10.40;;;13.60;99.90;;;;;;5059777;28;20270;-89
2024/01/29 13:01:20;;;;;;;10.90;10.60;;;13.20;99.90;;;;;;5054294;28;20241;-87
2024/01/29 13:03:48;;;;;;;10.87;10.57;;;13.10;99.90;;;;;;5046822;28;20247;-88
2024/01/29 16:41:00;;;;;;;10.20;9.90;;;8.60;99.90;;;;;;4912159;28;20231;-87
2024/01/29 17:04:28;;;;;;;9.20;9.00;;;8.40;99.90;;;;;;4870293;29;20235;-88
2024/01/29 17:33:54;;;;;;;9.40;9.10;;;7.40;99.90;;;;;;4744414;30;20218;-88
2024/01/29 17:36:32;;;;;;;9.70;9.40;;;7.30;99.90;;;;;;4780285;30;20256;-88
2024/01/29 17:39:05;;;;;;;9.67;9.37;;;7.20;99.90;;;;;;4780220;30;20292;-88
2024/01/29 17:44:35;;;;;;;9.00;8.80;;;7.10;99.90;;;;;;4912626;29;20284;-89
2024/01/29 17:47:06;;;;;;;8.77;8.57;;;7.10;99.90;;;;;;4892617;29;20245;-88
2024/01/29 17:49:42;;;;;;;8.73;8.53;;;7.00;99.90;;;;;;4892230;29;20296;-89
2024/01/29 17:52:38;;;;;;;9.10;8.87;;;6.90;99.90;;;;;;4892257;29;20229;-87
2024/01/29 17:55:08;;;;;;;9.60;9.30;;;6.90;99.90;;;;;;4892492;29;20335;-87
2024/01/29 17:57:37;;;;;;;9.30;9.00;;;6.90;99.90;;;;;;4892017;29;20297;-87
2024/01/29 18:03:54;;;;;;;9.10;8.90;;;6.80;99.90;;;;;;5027279;23;20209;-85
2024/01/29 18:06:26;;;;;;;9.40;9.10;;;6.80;99.90;;;;;;4965148;28;20242;-84
2024/01/29 18:09:14;;;;;;;9.13;8.93;;;6.80;99.90;;;;;;4965789;28;20241;-87
2024/01/29 18:11:41;;;;;;;9.33;9.03;;;6.80;99.90;;;;;;4965856;28;20261;-85
2024/01/29 18:14:10;;;;;;;9.60;9.30;;;6.70;99.90;;;;;;4962637;28;20310;-83
2024/01/29 18:16:39;;;;;;;9.47;9.17;;;6.60;99.90;;;;;;4946337;28;20266;-84
2024/01/29 18:19:07;;;;;;;9.70;9.40;;;6.60;99.90;;;;;;4940424;28;20250;-84
2024/01/29 18:21:36;;;;;;;9.20;8.97;;;6.50;99.90;;;;;;4947022;28;20277;-88
2024/01/29 18:24:07;;;;;;;9.20;9.00;;;6.50;99.90;;;;;;4946524;28;20235;-85
2024/01/29 18:26:36;;;;;;;8.93;8.73;;;6.50;99.90;;;;;;4950388;29;20291;-85
2024/01/29 18:29:05;;;;;;;9.27;9.00;;;6.40;99.90;;;;;;4950297;29;20257;-85
2024/01/29 18:31:34;;;;;;;9.00;8.80;;;6.30;99.90;;;;;;4950019;28;20231;-85
2024/01/29 18:34:14;;;;;;;9.37;9.07;;;6.30;99.90;;;;;;4942277;29;20231;-86
2024/01/29 18:36:42;;;;;;;9.80;9.50;;;6.20;99.90;;;;;;4948869;28;20231;-85
2024/01/29 18:39:13;;;;;;;8.90;8.70;;;6.20;99.90;;;;;;4948719;28;20235;-85
2024/01/29 18:41:42;;;;;;;9.03;8.83;;;6.20;99.90;;;;;;4949759;28;20238;-84
2024/01/29 18:44:11;;;;;;;9.30;9.00;;;6.10;99.90;;;;;;4951035;28;20245;-84
2024/01/29 18:46:39;;;;;;;9.60;9.30;;;6.10;99.90;;;;;;4951434;28;20222;-84
2024/01/29 18:49:08;;;;;;;9.70;9.40;;;6.00;99.90;;;;;;4951476;28;20246;-86
2024/01/29 18:51:36;;;;;;;9.70;9.40;;;6.00;99.90;;;;;;4950956;28;20231;-85
2024/01/29 18:54:03;;;;;;;9.60;9.30;;;6.00;99.90;;;;;;4950762;28;20296;-85
2024/01/29 18:56:40;;;;;;;9.80;9.50;;;6.00;99.90;;;;;;4950223;28;20215;-86
2024/01/29 18:59:13;;;;;;;9.50;9.20;;;6.00;99.90;;;;;;4949537;28;20234;-84
2024/01/29 19:01:40;;;;;;;9.57;9.27;;;5.90;99.90;;;;;;4949750;28;20294;-84
2024/01/29 19:04:08;;;;;;;9.63;9.33;;;5.90;99.90;;;;;;4948525;28;20246;-84
2024/01/29 19:06:35;;;;;;;9.60;9.30;;;5.90;99.90;;;;;;4946604;28;20742;-83
2024/01/29 19:09:03;;;;;;;9.80;9.50;;;5.90;99.90;;;;;;4947224;28;20227;-83
2024/01/29 19:11:31;;;;;;;9.50;9.20;;;5.80;99.90;;;;;;4947310;28;20238;-84
2024/01/29 19:13:59;;;;;;;9.40;9.10;;;5.80;99.90;;;;;;4945976;28;20286;-85
2024/01/29 19:16:30;;;;;;;9.63;9.33;;;5.80;99.90;;;;;;4946917;28;21034;-85
2024/01/29 19:18:57;;;;;;;9.60;9.30;;;5.70;99.90;;;;;;4946507;28;20251;-84
2024/01/29 19:21:25;;;;;;;9.90;9.60;;;5.70;99.90;;;;;;4950490;28;20242;-84
2024/01/29 19:23:53;;;;;;;9.60;9.30;;;5.60;99.90;;;;;;4948906;28;20227;-86
2024/01/29 19:26:26;;;;;;;9.57;9.27;;;5.60;99.90;;;;;;4950429;28;20235;-85
2024/01/29 19:28:55;;;;;;;9.60;9.30;;;5.50;99.90;;;;;;4948076;28;20227;-85